createdAt,value
2018-09-14T00:50:54.682Z,85.26
2018-09-14T00:56:03.002Z,85.01
2018-09-14T02:33:09.535Z,100.00
2018-09-14T02:38:13.646Z,100.00
2018-09-14T02:43:17.303Z,100.00
2018-09-14T03:45:59.135Z,86.77
2018-09-14T03:51:02.476Z,86.74
2018-09-14T03:56:05.830Z,86.37
2018-09-14T04:35:39.643Z,86.35
2018-09-14T04:40:44.226Z,86.04
2018-09-14T04:46:02.078Z,86.22
2018-09-14T04:51:05.414Z,86.44
2018-09-14T04:56:09.524Z,85.97
2018-09-14T05:01:12.878Z,86.21
2018-09-14T05:06:31.099Z,85.60
2018-09-14T05:11:34.439Z,85.47
2018-09-14T05:16:50.258Z,85.42
2018-09-14T05:21:53.586Z,85.66
2018-09-14T05:26:56.921Z,85.43
2018-09-14T05:32:00.254Z,85.30
2018-09-14T05:37:03.582Z,85.48
2018-09-14T05:42:07.699Z,85.39
2018-09-14T05:47:11.022Z,85.57
2018-09-14T05:52:15.124Z,85.39
2018-09-14T05:57:18.455Z,85.33
2018-09-14T06:02:22.567Z,85.36
2018-09-14T06:07:25.895Z,85.20
2018-09-14T06:12:29.218Z,85.14
2018-09-14T06:17:33.314Z,85.18
2018-09-14T06:22:36.687Z,84.93
2018-09-14T06:27:39.982Z,84.79
2018-09-14T07:01:29.383Z,84.04
2018-09-14T07:06:32.763Z,84.25
2018-09-14T07:11:36.142Z,84.26
2018-09-14T08:02:42.284Z,83.83
2018-09-14T08:07:45.607Z,83.84
2018-09-14T08:12:48.941Z,84.06
2018-09-14T09:03:57.380Z,82.22
2018-09-14T09:09:01.494Z,81.00
2018-09-14T09:14:04.775Z,81.07
2018-09-14T10:05:09.543Z,74.93
2018-09-14T10:10:12.862Z,75.95
2018-09-14T11:01:17.634Z,71.47
2018-09-14T11:06:22.014Z,68.76
2018-09-14T11:11:25.338Z,70.22
2018-09-14T12:02:29.016Z,63.93
2018-09-14T12:07:32.347Z,63.55
2018-09-14T12:12:35.674Z,62.95
2018-09-14T13:03:40.659Z,58.09
2018-09-14T13:08:44.750Z,58.54
2018-09-14T13:13:48.091Z,58.38
2018-09-14T14:04:53.906Z,53.67
2018-09-14T14:09:57.238Z,53.18
2018-09-14T14:15:00.560Z,52.66
2018-09-14T14:48:49.558Z,51.97
2018-09-14T14:53:52.878Z,51.97
2018-09-14T14:58:56.203Z,51.89
2018-09-14T15:03:59.534Z,51.74
2018-09-14T15:09:03.630Z,51.64
2018-09-14T15:14:06.964Z,51.40
2018-09-14T15:19:10.302Z,50.90
2018-09-14T15:24:13.647Z,49.71
2018-09-14T15:29:16.970Z,47.94
2018-09-14T15:34:20.302Z,47.62
2018-09-14T15:39:23.623Z,47.48
2018-09-14T15:44:26.956Z,47.67
2018-09-14T15:49:31.063Z,47.98
2018-09-14T15:54:34.394Z,47.65
2018-09-14T15:59:38.502Z,47.28
2018-09-14T16:04:41.846Z,46.38
2018-09-14T16:09:45.935Z,45.93
2018-09-14T16:14:49.263Z,45.67
2018-09-14T16:19:52.596Z,45.17
2018-09-14T16:25:02.014Z,44.62
2018-09-14T16:30:05.344Z,44.68
2018-09-14T16:35:08.831Z,44.48
2018-09-14T16:40:12.194Z,44.17
2018-09-14T16:45:16.291Z,44.77
2018-09-14T16:50:19.645Z,44.46
2018-09-14T16:55:23.726Z,44.10
2018-09-14T17:00:27.070Z,44.72
2018-09-14T17:05:30.401Z,46.05
2018-09-14T17:10:34.499Z,47.96
2018-09-14T17:15:37.827Z,49.06
2018-09-14T17:20:41.922Z,49.37
2018-09-14T17:25:45.247Z,50.44
2018-09-14T17:30:48.575Z,50.46
2018-09-14T17:35:52.875Z,50.02
2018-09-14T17:40:56.196Z,50.54
2018-09-14T17:45:59.523Z,51.34
2018-09-14T17:51:02.870Z,52.05
2018-09-14T17:56:06.967Z,51.86
2018-09-14T18:01:10.305Z,52.25
2018-09-14T18:06:33.165Z,52.66
2018-09-14T18:11:37.287Z,53.15
2018-09-14T18:16:40.632Z,53.74
2018-09-14T18:21:44.841Z,53.83
2018-09-14T18:26:48.421Z,54.03
2018-09-14T18:31:51.762Z,54.12
2018-09-14T18:36:55.127Z,54.14
2018-09-14T18:41:58.755Z,54.44
2018-09-14T18:47:02.371Z,54.76
2018-09-14T18:52:06.228Z,55.10
2018-09-14T18:57:09.846Z,55.40
2018-09-14T19:02:13.837Z,56.06
2018-09-14T19:07:18.437Z,56.41
2018-09-14T19:12:22.090Z,56.62
2018-09-14T19:17:25.710Z,57.48
2018-09-14T19:22:30.146Z,57.41
2018-09-14T19:27:34.589Z,57.93
2018-09-14T19:32:37.937Z,57.90
2018-09-14T19:37:41.270Z,58.13
2018-09-14T19:42:44.598Z,58.43
2018-09-14T19:47:48.707Z,58.56
2018-09-14T19:52:52.062Z,59.24
2018-09-14T19:57:55.387Z,59.68
2018-09-14T20:02:58.718Z,59.79
2018-09-14T20:08:02.050Z,59.93
2018-09-14T20:13:05.854Z,60.30
2018-09-14T20:18:09.640Z,60.62
2018-09-14T20:23:13.308Z,60.92
2018-09-14T20:28:16.627Z,61.19
2018-09-14T20:33:19.967Z,61.41
2018-09-14T20:38:24.071Z,61.89
2018-09-14T20:43:27.462Z,61.80
2018-09-14T20:48:30.734Z,61.86
2018-09-14T20:53:34.823Z,62.05
2018-09-14T20:58:38.164Z,62.27
2018-09-14T21:03:41.496Z,62.47
2018-09-14T21:08:45.589Z,62.59
2018-09-14T21:13:48.925Z,62.76
2018-09-14T21:18:53.038Z,62.88
2018-09-14T21:23:56.372Z,63.07
2018-09-14T21:29:00.511Z,63.17
2018-09-14T21:34:04.583Z,63.25
2018-09-14T21:39:07.911Z,63.45
2018-09-14T21:44:11.273Z,63.59
2018-09-14T21:49:15.370Z,63.69
2018-09-14T21:54:19.471Z,63.91
2018-09-14T21:59:22.803Z,64.18
2018-09-14T22:04:26.135Z,64.18
2018-09-14T22:09:29.474Z,64.53
2018-09-14T22:14:33.577Z,64.32
2018-09-14T22:19:36.903Z,64.41
2018-09-14T22:24:40.998Z,64.60
2018-09-14T22:29:44.326Z,64.59
2018-09-14T22:34:47.655Z,64.90
2018-09-14T22:39:51.755Z,65.10
2018-09-14T22:44:55.098Z,65.45
2018-09-14T22:49:59.203Z,65.41
2018-09-14T22:55:02.534Z,65.71
2018-09-14T23:00:05.859Z,65.64
2018-09-14T23:05:09.952Z,65.57
2018-09-14T23:10:13.276Z,65.69
